createdAt,value
2023-04-18T00:00:19.246Z,3.72
2023-04-18T00:03:21.943Z,3.35
2023-04-18T00:06:23.703Z,5.35
2023-04-18T00:09:25.686Z,3.30
2023-04-18T00:12:27.955Z,3.83
2023-04-18T00:15:30.278Z,4.43
2023-04-18T00:18:31.861Z,4.25
2023-04-18T00:21:33.514Z,6.35
2023-04-18T00:24:35.118Z,4.55
2023-04-18T00:27:41.136Z,3.65
2023-04-18T00:30:42.811Z,6.13
2023-04-18T00:33:44.532Z,5.25
2023-04-18T00:36:46.111Z,5.47
2023-04-18T00:39:47.715Z,4.88
2023-04-18T00:42:49.302Z,3.50
2023-04-18T00:45:50.934Z,7.38
2023-04-18T00:48:52.725Z,5.22
2023-04-18T00:51:56.736Z,3.78
2023-04-18T00:54:58.338Z,5.22
2023-04-18T00:58:00.284Z,6.88
2023-04-18T01:01:01.899Z,4.28
2023-04-18T01:04:03.763Z,4.60
2023-04-18T01:07:06.053Z,4.97
2023-04-18T01:10:10.325Z,3.78
2023-04-18T01:13:14.227Z,4.22
2023-04-18T01:16:15.804Z,3.85
2023-04-18T01:19:17.520Z,3.85
2023-04-18T01:22:20.296Z,3.78
2023-04-18T01:25:21.978Z,5.78
2023-04-18T01:28:23.633Z,4.45
2023-04-18T01:31:25.250Z,3.90
2023-04-18T01:34:26.848Z,3.17
2023-04-18T01:37:28.423Z,4.25
2023-04-18T01:40:30.327Z,3.92
2023-04-18T01:43:31.930Z,6.05
2023-04-18T01:46:34.275Z,4.25
2023-04-18T01:49:35.882Z,3.67
2023-04-18T01:52:37.453Z,4.97
2023-04-18T01:55:38.981Z,5.45
2023-04-18T01:58:41.701Z,5.38
2023-04-18T02:01:43.366Z,4.22
2023-04-18T02:04:44.981Z,6.30
2023-04-18T02:07:47.729Z,5.68
2023-04-18T02:10:49.301Z,5.18
2023-04-18T02:13:50.874Z,5.78
2023-04-18T02:16:52.456Z,4.13
2023-04-18T02:19:54.040Z,4.63
2023-04-18T02:22:55.681Z,6.50
2023-04-18T02:25:57.250Z,3.67
2023-04-18T02:28:58.868Z,3.97
2023-04-18T02:32:00.741Z,4.00
2023-04-18T02:35:02.340Z,5.38
2023-04-18T02:38:03.874Z,3.97
2023-04-18T02:41:05.530Z,4.13
2023-04-18T02:44:08.661Z,5.25
2023-04-18T02:47:10.394Z,3.90
2023-04-18T02:50:12.001Z,4.88
2023-04-18T02:53:13.603Z,4.03
2023-04-18T02:56:17.157Z,3.42
2023-04-18T02:59:18.753Z,4.63
2023-04-18T03:02:21.002Z,5.07
2023-04-18T03:05:22.804Z,6.15
2023-04-18T03:08:24.509Z,5.63
2023-04-18T03:11:26.053Z,5.80
2023-04-18T03:14:27.632Z,5.15
2023-04-18T03:17:29.334Z,3.63
2023-04-18T03:20:30.896Z,5.70
2023-04-18T03:23:32.586Z,4.78
2023-04-18T03:26:34.165Z,5.28
2023-04-18T03:29:35.797Z,4.18
2023-04-18T03:32:38.607Z,4.97
2023-04-18T03:35:40.633Z,4.40
2023-04-18T03:38:42.383Z,5.80
2023-04-18T03:41:43.924Z,4.97
2023-04-18T03:44:45.474Z,5.55
2023-04-18T03:47:47.075Z,4.60
2023-04-18T03:50:48.690Z,5.25
2023-04-18T03:53:50.399Z,3.58
2023-04-18T03:56:52.440Z,3.33
2023-04-18T03:59:54.177Z,6.20
2023-04-18T04:02:56.151Z,5.18
2023-04-18T04:05:58.037Z,4.75
2023-04-18T04:08:59.615Z,6.65
2023-04-18T04:12:02.258Z,5.22
2023-04-18T04:15:04.091Z,7.88
2023-04-18T04:18:06.527Z,6.60
2023-04-18T04:21:08.160Z,5.53
2023-04-18T04:24:09.751Z,5.20
2023-04-18T04:27:12.605Z,5.63
2023-04-18T04:30:14.347Z,5.85
2023-04-18T04:33:19.709Z,3.70
2023-04-18T04:36:23.119Z,5.65
2023-04-18T04:39:24.786Z,7.03
2023-04-18T04:42:26.899Z,5.18
2023-04-18T04:45:28.611Z,6.97
2023-04-18T04:48:30.242Z,5.72
2023-04-18T04:51:31.980Z,5.22
2023-04-18T04:54:33.530Z,5.75
2023-04-18T04:57:35.828Z,7.00
2023-04-18T05:00:37.435Z,6.57
2023-04-18T05:03:39.138Z,5.57
2023-04-18T05:06:40.952Z,5.43
2023-04-18T05:09:42.536Z,6.93
2023-04-18T05:12:44.121Z,5.40
2023-04-18T05:15:45.846Z,7.07
2023-04-18T05:18:47.438Z,5.38
2023-04-18T05:21:49.015Z,5.57
2023-04-18T05:24:50.609Z,5.78
2023-04-18T05:27:52.285Z,6.13
2023-04-18T05:31:01.100Z,5.00
2023-04-18T05:34:02.806Z,6.03
2023-04-18T05:37:04.412Z,5.18
2023-04-18T05:40:06.898Z,4.65
2023-04-18T05:43:08.455Z,5.85
2023-04-18T05:46:10.185Z,4.82
2023-04-18T05:49:12.133Z,4.25
2023-04-18T05:52:13.731Z,5.40
2023-04-18T05:55:15.406Z,4.63
2023-04-18T05:58:17.022Z,5.35
2023-04-18T06:01:18.823Z,3.75
2023-04-18T06:04:21.280Z,4.20
2023-04-18T06:07:25.230Z,4.43
2023-04-18T06:10:26.872Z,6.13
2023-04-18T06:13:28.523Z,4.35
2023-04-18T06:16:30.313Z,4.13
2023-04-18T06:19:31.893Z,4.72
2023-04-18T06:22:36.398Z,3.97
2023-04-18T06:25:38.049Z,4.47
2023-04-18T06:28:39.715Z,2.90
2023-04-18T06:31:42.210Z,3.45
2023-04-18T06:34:44.856Z,4.72
2023-04-18T06:37:46.570Z,5.03
2023-04-18T06:40:48.296Z,4.22
2023-04-18T06:44:14.511Z,4.20
2023-04-18T06:47:11.542Z,3.47
2023-04-18T06:50:13.698Z,5.85
2023-04-18T06:53:15.263Z,5.88
2023-04-18T06:56:16.866Z,7.95
2023-04-18T06:59:19.313Z,5.07
2023-04-18T07:02:20.927Z,6.85
2023-04-18T07:05:22.677Z,5.40
2023-04-18T07:08:24.235Z,7.78
2023-04-18T07:11:26.117Z,10.00
2023-04-18T07:14:28.467Z,9.45
2023-04-18T07:17:30.113Z,9.77
2023-04-18T07:20:31.715Z,9.25
2023-04-18T07:23:33.339Z,8.20
2023-04-18T07:26:34.998Z,6.85
2023-04-18T07:29:36.582Z,5.07
2023-04-18T07:32:38.285Z,3.85
2023-04-18T07:35:40.516Z,4.90
2023-04-18T07:38:42.597Z,4.72
2023-04-18T07:41:44.177Z,2.67
2023-04-18T07:44:45.890Z,1.90
2023-04-18T07:47:47.568Z,1.17
2023-04-18T07:50:49.441Z,1.50
2023-04-18T07:53:51.252Z,2.95
2023-04-18T07:56:52.951Z,2.58
2023-04-18T07:59:54.491Z,2.60
2023-04-18T08:02:56.576Z,1.73
2023-04-18T08:05:58.246Z,2.22
2023-04-18T08:09:03.154Z,4.00
2023-04-18T08:12:05.162Z,3.15
2023-04-18T08:15:07.462Z,4.18
2023-04-18T08:18:09.053Z,3.35
2023-04-18T08:21:10.721Z,2.80
2023-04-18T08:24:12.340Z,3.72
2023-04-18T08:27:14.052Z,4.45
2023-04-18T08:30:15.670Z,3.03
2023-04-18T08:33:18.430Z,3.42
2023-04-18T08:36:21.259Z,3.85
2023-04-18T08:39:24.849Z,5.97
2023-04-18T08:42:27.638Z,5.68
2023-04-18T08:45:29.591Z,5.70
2023-04-18T08:48:31.487Z,5.82
2023-04-18T08:51:41.653Z,3.85
2023-04-18T08:54:45.272Z,6.13
2023-04-18T08:57:47.575Z,1.65
2023-04-18T09:00:55.817Z,1.20
2023-04-18T09:03:58.298Z,1.92
2023-04-18T09:07:00.550Z,2.50
2023-04-18T09:10:02.142Z,1.75
2023-04-18T09:13:04.453Z,1.63
2023-04-18T09:16:06.564Z,2.00
2023-04-18T09:19:18.161Z,1.42
2023-04-18T09:22:20.854Z,2.80
2023-04-18T09:25:34.933Z,3.65
2023-04-18T09:28:37.529Z,1.85
2023-04-18T09:32:02.207Z,1.75
2023-04-18T09:38:07.926Z,1.50
2023-04-18T09:41:11.433Z,1.00
2023-04-18T09:44:15.312Z,1.90
2023-04-18T09:47:17.312Z,1.23
2023-04-18T09:50:20.856Z,2.03
2023-04-18T09:53:24.365Z,2.03
2023-04-18T09:56:29.666Z,1.48
2023-04-18T09:59:47.778Z,3.47
2023-04-18T10:02:59.789Z,1.13
2023-04-18T10:06:01.743Z,4.03
2023-04-18T10:09:04.369Z,2.10
2023-04-18T10:12:06.390Z,2.08
2023-04-18T10:15:11.009Z,1.13
2023-04-18T10:18:18.847Z,1.23
2023-04-18T10:21:21.745Z,1.83
2023-04-18T10:24:45.311Z,2.90
2023-04-18T10:27:49.590Z,1.00
2023-04-18T10:30:53.802Z,5.90
2023-04-18T10:37:06.241Z,1.73
2023-04-18T10:40:10.342Z,1.13
2023-04-18T10:43:13.326Z,1.73
2023-04-18T10:46:30.377Z,1.10
2023-04-18T10:49:33.436Z,0.50
2023-04-18T10:52:35.372Z,2.20
2023-04-18T10:55:39.489Z,2.10
2023-04-18T10:58:42.474Z,3.85
2023-04-18T11:01:49.185Z,1.05
2023-04-18T11:04:59.166Z,1.85
2023-04-18T11:08:00.769Z,3.75
2023-04-18T11:11:06.904Z,2.05
2023-04-18T11:14:08.536Z,2.40
2023-04-18T11:17:26.507Z,2.03
2023-04-18T11:20:29.498Z,2.10
2023-04-18T11:23:31.154Z,1.40
2023-04-18T11:26:33.423Z,2.88
2023-04-18T11:29:35.359Z,3.05
2023-04-18T11:32:37.094Z,3.13
2023-04-18T11:35:38.794Z,2.42
2023-04-18T11:38:42.065Z,2.15
2023-04-18T11:41:50.224Z,2.95
2023-04-18T11:44:51.829Z,2.63
2023-04-18T11:47:59.715Z,2.67
2023-04-18T11:51:01.466Z,2.95
2023-04-18T11:54:03.206Z,2.13
2023-04-18T11:57:06.286Z,2.00
2023-04-18T12:00:12.268Z,2.55
2023-04-18T12:03:18.783Z,3.13
2023-04-18T12:09:24.553Z,3.28
2023-04-18T12:12:26.123Z,1.00
2023-04-18T12:15:28.981Z,4.65
2023-04-18T12:18:31.483Z,1.80
2023-04-18T12:21:33.148Z,2.55
2023-04-18T12:24:36.109Z,1.48
2023-04-18T12:27:58.539Z,3.72
2023-04-18T12:31:00.485Z,1.52
2023-04-18T12:34:02.139Z,2.15
2023-04-18T12:37:05.069Z,2.95
2023-04-18T12:40:07.843Z,3.63
2023-04-18T12:43:09.626Z,2.33
2023-04-18T12:46:11.277Z,2.03
2023-04-18T12:49:12.909Z,1.92
2023-04-18T12:52:16.198Z,3.00
2023-04-18T12:55:17.891Z,3.70
2023-04-18T12:58:20.647Z,4.07
2023-04-18T13:01:22.318Z,1.65
2023-04-18T13:04:24.133Z,2.45
2023-04-18T13:07:25.883Z,4.85
2023-04-18T13:10:27.461Z,3.63
2023-04-18T13:13:29.027Z,1.13
2023-04-18T13:16:31.242Z,3.50
2023-04-18T13:19:32.845Z,1.70
2023-04-18T13:22:34.789Z,3.60
2023-04-18T13:25:36.428Z,3.60
2023-04-18T13:28:38.057Z,3.20
2023-04-18T13:31:39.714Z,3.38
2023-04-18T13:34:46.484Z,2.08
2023-04-18T13:37:48.055Z,1.88
2023-04-18T13:40:55.803Z,1.40
2023-04-18T13:44:06.276Z,2.67
2023-04-18T13:47:08.114Z,2.13
2023-04-18T13:50:10.013Z,2.72
2023-04-18T13:53:11.715Z,1.10
2023-04-18T13:56:13.307Z,3.33
2023-04-18T13:59:15.046Z,1.80
2023-04-18T14:02:16.989Z,2.05
2023-04-18T14:05:18.806Z,0.82
2023-04-18T14:08:21.049Z,3.67
2023-04-18T14:11:23.045Z,2.10
2023-04-18T14:14:24.982Z,3.85
2023-04-18T14:17:26.580Z,1.85
2023-04-18T14:20:34.286Z,4.93
2023-04-18T14:23:35.893Z,2.63
2023-04-18T14:26:37.657Z,2.78
2023-04-18T14:29:39.308Z,3.88
2023-04-18T14:32:41.060Z,2.65
2023-04-18T14:35:43.811Z,1.83
2023-04-18T14:38:49.522Z,2.22
2023-04-18T14:41:51.094Z,5.10
2023-04-18T14:44:52.639Z,3.20
2023-04-18T14:47:55.817Z,1.10
2023-04-18T14:51:02.548Z,2.15
2023-04-18T14:54:04.281Z,3.05
2023-04-18T14:57:08.251Z,4.45
2023-04-18T15:00:11.319Z,3.08
2023-04-18T15:03:13.058Z,1.73
2023-04-18T15:06:14.725Z,1.73
2023-04-18T15:09:16.313Z,4.07
2023-04-18T15:12:18.045Z,2.63
2023-04-18T15:15:19.797Z,4.18
2023-04-18T15:18:21.532Z,3.75
2023-04-18T15:21:23.176Z,2.90
2023-04-18T15:24:24.758Z,1.60
2023-04-18T15:27:26.411Z,2.75
2023-04-18T15:30:28.085Z,3.72
2023-04-18T15:33:29.759Z,3.45
2023-04-18T15:36:31.785Z,2.33
2023-04-18T15:39:33.348Z,4.93
2023-04-18T15:42:35.168Z,1.75
2023-04-18T15:45:36.764Z,4.72
2023-04-18T15:48:38.316Z,1.65
2023-04-18T15:51:40.367Z,3.53
2023-04-18T15:54:44.812Z,2.72
2023-04-18T15:57:46.452Z,4.85
2023-04-18T16:00:50.092Z,2.55
2023-04-18T16:03:51.815Z,3.03
2023-04-18T16:06:53.447Z,2.17
2023-04-18T16:09:55.018Z,3.50
2023-04-18T16:12:56.683Z,3.25
2023-04-18T16:15:58.337Z,3.50
2023-04-18T16:19:00.806Z,1.55
2023-04-18T16:22:02.330Z,2.75
2023-04-18T16:25:05.003Z,2.65
2023-04-18T16:28:06.645Z,3.15
2023-04-18T16:31:08.278Z,2.45
2023-04-18T16:34:09.998Z,1.90
2023-04-18T16:37:11.839Z,3.35
2023-04-18T16:40:15.289Z,3.30
2023-04-18T16:43:16.989Z,3.15
2023-04-18T16:46:19.161Z,3.90
2023-04-18T16:49:20.953Z,2.80
2023-04-18T16:52:23.172Z,3.70
2023-04-18T16:55:24.824Z,1.35
2023-04-18T16:58:26.417Z,2.08
2023-04-18T17:01:28.073Z,3.53
2023-04-18T17:04:29.994Z,2.70
2023-04-18T17:07:31.562Z,2.40
2023-04-18T17:10:33.452Z,5.30
2023-04-18T17:13:36.065Z,4.43
2023-04-18T17:16:39.637Z,1.17
2023-04-18T17:19:41.678Z,3.78
2023-04-18T17:22:43.630Z,2.50
2023-04-18T17:25:45.311Z,2.60
2023-04-18T17:28:46.937Z,5.28
2023-04-18T17:31:48.553Z,3.42
2023-04-18T17:34:50.194Z,3.13
2023-04-18T17:37:52.890Z,1.75
2023-04-18T17:41:02.140Z,3.58
2023-04-18T17:44:04.416Z,2.65
2023-04-18T17:47:06.862Z,4.78
2023-04-18T17:50:08.873Z,3.30
2023-04-18T17:53:12.365Z,2.50
2023-04-18T17:56:13.920Z,1.67
2023-04-18T17:59:15.923Z,3.60
2023-04-18T18:02:17.776Z,4.65
2023-04-18T18:05:19.429Z,2.63
2023-04-18T18:08:21.929Z,4.13
2023-04-18T18:11:23.803Z,1.95
2023-04-18T18:14:26.800Z,3.65
2023-04-18T18:17:28.973Z,4.22
2023-04-18T18:20:30.856Z,7.65
2023-04-18T18:23:32.468Z,5.95
2023-04-18T18:26:37.372Z,6.95
2023-04-18T18:29:38.955Z,8.57
2023-04-18T18:32:40.620Z,9.38
2023-04-18T18:35:42.228Z,9.00
2023-04-18T18:38:43.829Z,17.98
2023-04-18T18:41:45.503Z,14.93
2023-04-18T18:44:47.098Z,15.68
2023-04-18T18:47:48.878Z,11.15
2023-04-18T18:50:51.466Z,11.23
2023-04-18T18:53:53.102Z,14.27
2023-04-18T18:56:54.688Z,12.63
2023-04-18T18:59:56.306Z,14.13
2023-04-18T19:02:57.994Z,17.00
2023-04-18T19:06:03.905Z,13.63
2023-04-18T19:09:05.555Z,16.73
2023-04-18T19:12:07.428Z,27.77
2023-04-18T19:15:09.849Z,32.97
2023-04-18T19:18:12.461Z,41.00
2023-04-18T19:21:14.066Z,33.33
2023-04-18T19:24:16.026Z,22.10
2023-04-18T19:27:17.936Z,21.23
2023-04-18T19:30:19.695Z,17.92
2023-04-18T19:33:24.491Z,25.55
2023-04-18T19:36:26.713Z,23.50
2023-04-18T19:39:28.641Z,17.52
2023-04-18T19:42:30.229Z,17.23
2023-04-18T19:45:31.894Z,13.57
2023-04-18T19:48:33.658Z,14.85
2023-04-18T19:51:35.321Z,14.73
2023-04-18T19:54:36.946Z,10.40
2023-04-18T19:57:39.648Z,7.45
2023-04-18T20:00:41.604Z,9.75
2023-04-18T20:03:43.529Z,12.70
2023-04-18T20:06:45.406Z,9.68
2023-04-18T20:09:46.955Z,8.30
2023-04-18T20:12:50.051Z,10.52
2023-04-18T20:15:53.345Z,8.65
2023-04-18T20:18:56.599Z,10.02
2023-04-18T20:21:58.218Z,7.53
2023-04-18T20:25:00.964Z,7.60
2023-04-18T20:28:03.050Z,7.10
2023-04-18T20:31:04.829Z,6.57
2023-04-18T20:34:06.706Z,9.15
2023-04-18T20:37:09.343Z,9.65
2023-04-18T20:40:11.383Z,11.13
2023-04-18T20:43:17.326Z,13.02
2023-04-18T20:46:19.005Z,9.48
2023-04-18T20:49:20.595Z,10.80
2023-04-18T20:52:22.521Z,13.60
2023-04-18T20:55:24.087Z,12.32
2023-04-18T20:58:25.868Z,9.27
2023-04-18T21:01:27.491Z,9.48
2023-04-18T21:04:29.425Z,8.40
2023-04-18T21:07:32.149Z,5.68
2023-04-18T21:10:34.086Z,5.43
2023-04-18T21:13:35.685Z,5.60
2023-04-18T21:16:39.433Z,5.78
2023-04-18T21:19:41.095Z,6.10
2023-04-18T21:22:42.743Z,4.82
2023-04-18T21:25:44.343Z,4.25
2023-04-18T21:29:00.139Z,4.22
2023-04-18T21:32:01.988Z,2.80
2023-04-18T21:35:03.648Z,4.20
2023-04-18T21:38:05.347Z,3.83
2023-04-18T21:41:07.219Z,5.88
2023-04-18T21:44:08.772Z,2.75
2023-04-18T21:47:10.401Z,2.95
2023-04-18T21:50:11.992Z,3.47
2023-04-18T21:53:13.577Z,2.80
2023-04-18T21:56:17.012Z,6.60
2023-04-18T21:59:18.600Z,3.42
2023-04-18T22:02:20.396Z,3.28
2023-04-18T22:05:21.993Z,3.00
2023-04-18T22:08:25.856Z,2.75
2023-04-18T22:11:28.584Z,3.78
2023-04-18T22:14:32.069Z,3.58
2023-04-18T22:17:34.893Z,7.78
2023-04-18T22:20:37.379Z,2.00
2023-04-18T22:23:39.038Z,3.03
2023-04-18T22:26:41.004Z,3.20
2023-04-18T22:29:42.570Z,2.45
2023-04-18T22:32:44.194Z,5.00
2023-04-18T22:35:47.507Z,3.30
2023-04-18T22:38:49.136Z,3.85
2023-04-18T22:41:50.691Z,2.55
2023-04-18T22:44:52.231Z,2.97
2023-04-18T22:47:53.875Z,2.50
2023-04-18T22:50:55.553Z,6.05
2023-04-18T22:53:57.131Z,2.70
2023-04-18T22:56:58.717Z,1.80
2023-04-18T23:00:00.294Z,2.58
2023-04-18T23:03:02.553Z,5.25
2023-04-18T23:06:07.397Z,6.07
2023-04-18T23:09:09.775Z,4.60
2023-04-18T23:12:12.620Z,4.18
2023-04-18T23:15:14.223Z,4.10
2023-04-18T23:18:15.842Z,3.88
2023-04-18T23:21:17.964Z,3.42
2023-04-18T23:24:19.519Z,5.25
2023-04-18T23:27:21.130Z,4.43
2023-04-18T23:30:22.713Z,6.75
2023-04-18T23:33:24.310Z,5.63
2023-04-18T23:36:27.374Z,6.25
2023-04-18T23:39:29.038Z,5.93
2023-04-18T23:42:30.626Z,5.78
2023-04-18T23:45:32.218Z,7.28
2023-04-18T23:48:33.795Z,7.00
2023-04-18T23:51:35.419Z,6.20
2023-04-18T23:54:36.986Z,6.68
2023-04-18T23:57:38.543Z,6.53
